Time;durP1;ratioP1;P1;durP2;ratioP2;P2;SDS_P1;SDS_P2;PMS_P1;PMS_P2;Temp;Humidity;BMP_temperature;BMP_pressure;BME280_temperature;BME280_humidity;BME280_pressure;Samples;Min_cycle;Max_cycle;Signal;HPM_P1;HPM_P2
2023/03/28 00:01:10;;;;;;;;;;;;;;;21.67;37.01;102276.47;7257082;19;152410;-56
2023/03/28 00:03:38;;;;;;;;;;;;;;;21.61;37.12;102267.22;7259860;19;154255;-56
2023/03/28 00:06:09;;;;;;;;;;;;;;;21.60;37.08;102273.09;7256407;19;153953;-56
2023/03/28 00:08:46;;;;;;;;;;;;;;;21.58;36.87;102266.91;7259532;19;153351;-56
2023/03/28 00:11:18;;;;;;;;;;;;;;;21.54;37.01;102265.78;7256169;19;154263;-56
2023/03/28 00:13:47;;;;;;;;;;;;;;;21.50;37.22;102265.53;7257046;19;153352;-56
2023/03/28 00:16:14;;;;;;;;;;;;;;;21.47;37.26;102263.28;7258488;19;152737;-56
2023/03/28 00:18:41;;;;;;;;;;;;;;;21.49;37.54;102266.66;7260231;19;154093;-56
2023/03/28 00:21:18;;;;;;;;;;;;;;;21.45;37.20;102259.06;7264938;19;152549;-56
2023/03/28 00:23:45;;;;;;;;;;;;;;;21.43;37.14;102264.97;7258884;19;154106;-56
2023/03/28 00:26:17;;;;;;;;;;;;;;;21.40;37.45;102261.88;7254701;19;154293;-56
2023/03/28 00:28:46;;;;;;;;;;;;;;;21.39;37.69;102251.78;7259386;19;152799;-58
2023/03/28 00:31:14;;;;;;;;;;;;;;;21.37;37.68;102245.56;7254726;19;152251;-57
2023/03/28 00:33:41;;;;;;;;;;;;;;;21.36;37.32;102253.16;7256391;19;152842;-56
2023/03/28 00:36:09;;;;;;;;;;;;;;;21.36;37.74;102241.06;7257617;19;154144;-56
2023/03/28 00:38:43;;;;;;;;;;;;;;;21.32;37.40;102245.56;7254945;19;154317;-55
2023/03/28 00:41:10;;;;;;;;;;;;;;;21.28;37.68;102239.69;7261886;19;153583;-55
2023/03/28 00:43:39;;;;;;;;;;;;;;;21.28;37.61;102240.53;7256330;19;154631;-55
2023/03/28 00:46:17;;;;;;;;;;;;;;;21.27;37.71;102238.84;7258649;19;154350;-55
2023/03/28 00:48:48;;;;;;;;;;;;;;;21.24;37.87;102230.97;7259376;19;153581;-56
2023/03/28 00:51:18;;;;;;;;;;;;;;;21.20;37.50;102226.19;7259103;19;152712;-56
2023/03/28 00:53:59;;;;;;;;;;;;;;;21.18;37.66;102222.81;7292970;19;153029;-56
2023/03/28 00:56:28;;;;;;;;;;;;;;;21.17;38.09;102219.16;7286279;19;153480;-56
2023/03/28 00:58:56;;;;;;;;;;;;;;;21.15;37.92;102223.38;7294692;19;152953;-56
2023/03/28 01:01:23;;;;;;;;;;;;;;;21.15;38.17;102218.63;7289824;19;153019;-56
2023/03/28 01:04:01;;;;;;;;;;;;;;;21.14;37.89;102213.25;7291876;19;153668;-56
2023/03/28 01:06:39;;;;;;;;;;;;;;;21.09;38.06;102207.59;7290691;19;154831;-55
2023/03/28 01:09:06;;;;;;;;;;;;;;;21.10;38.06;102214.91;7291336;19;153357;-56
2023/03/28 01:11:35;;;;;;;;;;;;;;;21.07;38.15;102207.06;7284348;19;154374;-56
2023/03/28 01:14:03;;;;;;;;;;;;;;;21.06;37.94;102197.78;7294199;19;152752;-56
2023/03/28 01:16:30;;;;;;;;;;;;;;;21.03;37.81;102192.72;7284540;19;153779;-56
2023/03/28 01:19:01;;;;;;;;;;;;;;;21.03;38.05;102189.09;7292661;19;153141;-56
2023/03/28 01:21:34;;;;;;;;;;;;;;;21.01;37.78;102180.94;7290766;19;153271;-56
2023/03/28 01:24:03;;;;;;;;;;;;;;;21.01;37.66;102177.28;7285745;19;153797;-56
2023/03/28 01:26:56;;;;;;;;;;;;;;;20.99;38.06;102179.50;7286674;19;152778;-55
2023/03/28 01:29:59;;;;;;;;;;;;;;;20.97;37.90;102177.00;7288824;19;152475;-55
2023/03/28 01:32:26;;;;;;;;;;;;;;;20.96;37.75;102166.88;7287541;19;153620;-58
2023/03/28 01:35:11;;;;;;;;;;;;;;;20.92;37.94;102162.94;7290381;19;152809;-56
2023/03/28 01:37:57;;;;;;;;;;;;;;;20.90;37.75;102159.56;7296864;19;153176;-56
2023/03/28 01:40:42;;;;;;;;;;;;;;;20.88;37.92;102159.03;7289556;19;152848;-55
2023/03/28 01:43:16;;;;;;;;;;;;;;;20.87;37.78;102148.91;7289475;19;153552;-56
2023/03/28 01:45:54;;;;;;;;;;;;;;;20.88;38.09;102144.13;7273132;19;153486;-56
2023/03/28 01:48:24;;;;;;;;;;;;;;;20.81;38.11;102144.41;7279634;19;153466;-56
2023/03/28 01:51:00;;;;;;;;;;;;;;;20.79;37.69;102144.69;7286427;19;152344;-56
2023/03/28 01:53:39;;;;;;;;;;;;;;;20.79;37.93;102139.09;7286172;19;154229;-56
2023/03/28 01:56:12;;;;;;;;;;;;;;;20.79;38.17;102135.44;7290611;19;152104;-56
2023/03/28 01:58:46;;;;;;;;;;;;;;;20.73;38.16;102130.91;7290187;19;153152;-56
2023/03/28 02:01:21;;;;;;;;;;;;;;;20.70;37.92;102129.53;7288524;19;154145;-56
2023/03/28 02:03:52;;;;;;;;;;;;;;;20.72;38.21;102129.22;7275569;19;153458;-56
2023/03/28 02:06:20;;;;;;;;;;;;;;;20.67;38.05;102124.47;7258477;19;154426;-56
2023/03/28 02:08:48;;;;;;;;;;;;;;;20.61;38.31;102125.59;7262721;19;153488;-56
2023/03/28 02:11:14;;;;;;;;;;;;;;;20.65;38.27;102117.44;7257456;19;152930;-56
2023/03/28 02:13:43;;;;;;;;;;;;;;;20.59;38.00;102113.78;7259746;19;154587;-57
2023/03/28 02:16:12;;;;;;;;;;;;;;;20.57;38.07;102113.25;7258165;19;152238;-56
2023/03/28 02:18:43;;;;;;;;;;;;;;;20.53;38.38;102100.06;7261099;19;153863;-56
2023/03/28 02:21:16;;;;;;;;;;;;;;;20.57;37.90;102107.63;7255236;19;154149;-56
2023/03/28 02:23:51;;;;;;;;;;;;;;;20.55;38.40;102095.81;7266869;19;154722;-56
2023/03/28 02:26:18;;;;;;;;;;;;;;;20.51;38.31;102099.47;7259134;19;153400;-56
2023/03/28 02:28:47;;;;;;;;;;;;;;;20.49;38.54;102096.94;7261310;19;152437;-56
2023/03/28 02:31:14;;;;;;;;;;;;;;;20.50;38.01;102092.16;7254538;19;152639;-56
2023/03/28 02:33:42;;;;;;;;;;;;;;;20.48;38.52;102095.28;7257023;19;154667;-56
2023/03/28 02:36:27;;;;;;;;;;;;;;;20.48;38.45;102094.44;7257859;19;153222;-56
2023/03/28 02:38:57;;;;;;;;;;;;;;;20.47;38.16;102093.59;7260234;19;153289;-56
2023/03/28 02:41:42;;;;;;;;;;;;;;;20.46;38.64;102085.44;7254062;19;155780;-56
2023/03/28 02:44:23;;;;;;;;;;;;;;;20.41;38.64;102077.84;7261406;19;152832;-57
2023/03/28 02:47:11;;;;;;;;;;;;;;;20.41;38.48;102080.66;7258774;19;152640;-56
2023/03/28 02:49:37;;;;;;;;;;;;;;;20.41;38.51;102072.22;7259355;19;152918;-56
2023/03/28 02:52:35;;;;;;;;;;;;;;;20.37;38.42;102066.34;7258833;19;152905;-56
2023/03/28 02:55:08;;;;;;;;;;;;;;;20.36;38.60;102069.41;7257812;19;154185;-56
2023/03/28 02:57:39;;;;;;;;;;;;;;;20.28;38.78;102059.56;7258913;19;153779;-56
2023/03/28 03:00:11;;;;;;;;;;;;;;;20.28;38.87;102050.31;7256717;19;152934;-56
2023/03/28 03:02:39;;;;;;;;;;;;;;;20.32;38.55;102045.84;7255256;19;154065;-56
2023/03/28 03:05:06;;;;;;;;;;;;;;;20.26;38.52;102041.34;7254765;19;153529;-56
2023/03/28 03:07:33;;;;;;;;;;;;;;;20.29;38.64;102038.81;7257383;19;152494;-56
2023/03/28 03:10:00;;;;;;;;;;;;;;;20.22;38.84;102032.63;7262943;19;154508;-56
2023/03/28 03:12:27;;;;;;;;;;;;;;;20.23;38.61;102031.50;7258377;19;152631;-56
2023/03/28 03:14:53;;;;;;;;;;;;;;;20.20;38.55;102029.25;7253595;19;156012;-57
2023/03/28 03:17:20;;;;;;;;;;;;;;;20.20;38.53;102018.03;7252002;19;152042;-56
2023/03/28 03:19:47;;;;;;;;;;;;;;;20.18;38.85;102019.44;7258921;19;153054;-56
2023/03/28 03:22:14;;;;;;;;;;;;;;;20.18;38.88;102017.47;7259710;19;154472;-57
2023/03/28 03:24:47;;;;;;;;;;;;;;;20.15;38.53;102009.63;7258329;19;152745;-56
2023/03/28 03:27:14;;;;;;;;;;;;;;;20.11;38.57;102000.09;7256493;19;153054;-57
2023/03/28 03:29:41;;;;;;;;;;;;;;;20.12;38.99;101993.34;7263491;19;153841;-57
2023/03/28 03:32:08;;;;;;;;;;;;;;;20.14;38.96;101993.06;7255547;19;152828;-56
2023/03/28 03:34:35;;;;;;;;;;;;;;;20.14;38.90;101981.84;7255806;19;153411;-57
2023/03/28 03:37:03;;;;;;;;;;;;;;;20.10;38.66;101977.91;7257006;19;151908;-56
2023/03/28 03:39:29;;;;;;;;;;;;;;;20.07;38.76;101981.28;7255216;19;153503;-56
2023/03/28 03:41:56;;;;;;;;;;;;;;;20.10;38.70;101966.69;7255899;19;153684;-56
2023/03/28 03:44:23;;;;;;;;;;;;;;;20.04;39.15;101968.63;7256901;19;155003;-56
2023/03/28 03:46:50;;;;;;;;;;;;;;;20.11;38.87;101960.81;7249779;19;152863;-56
2023/03/28 03:49:17;;;;;;;;;;;;;;;20.08;39.21;101954.91;7251088;19;152748;-55
2023/03/28 03:51:44;;;;;;;;;;;;;;;20.04;39.21;101949.00;7263107;19;152900;-56
2023/03/28 03:54:10;;;;;;;;;;;;;;;20.02;39.25;101954.06;7256014;19;154677;-56
2023/03/28 03:56:37;;;;;;;;;;;;;;;19.95;39.25;101945.91;7253451;19;152392;-56
2023/03/28 03:59:04;;;;;;;;;;;;;;;19.96;39.27;101950.41;7257869;19;153687;-57
2023/03/28 04:01:31;;;;;;;;;;;;;;;19.94;39.33;101951.81;7252831;19;154901;-57
2023/03/28 04:03:58;;;;;;;;;;;;;;;19.95;39.14;101943.13;7258082;19;152501;-57
2023/03/28 04:06:25;;;;;;;;;;;;;;;19.94;38.90;101935.81;7254230;19;153088;-57
2023/03/28 04:08:51;;;;;;;;;;;;;;;19.91;39.38;101943.94;7255660;19;153603;-56
2023/03/28 04:11:18;;;;;;;;;;;;;;;19.87;39.13;101934.41;7255476;19;152931;-57
2023/03/28 04:13:45;;;;;;;;;;;;;;;19.89;39.45;101941.44;7262435;19;154199;-57
2023/03/28 04:16:12;;;;;;;;;;;;;;;19.89;39.30;101935.84;7252559;19;152252;-57
2023/03/28 04:18:39;;;;;;;;;;;;;;;19.84;39.43;101943.41;7253826;19;152177;-57
2023/03/28 04:21:08;;;;;;;;;;;;;;;19.83;39.60;101930.50;7255165;19;153690;-57
2023/03/28 04:23:42;;;;;;;;;;;;;;;19.80;39.45;101939.47;7255432;19;153617;-57
2023/03/28 04:26:14;;;;;;;;;;;;;;;19.78;39.23;101938.91;7257641;19;153816;-57
2023/03/28 04:28:42;;;;;;;;;;;;;;;19.77;39.38;101937.22;7256243;19;155195;-57
2023/03/28 04:31:10;;;;;;;;;;;;;;;19.74;39.62;101930.22;7252335;19;153678;-56
2023/03/28 04:33:38;;;;;;;;;;;;;;;19.76;39.21;101935.56;7257574;19;151872;-56
2023/03/28 04:36:06;;;;;;;;;;;;;;;19.76;39.48;101925.16;7260044;19;156829;-57
2023/03/28 04:38:36;;;;;;;;;;;;;;;19.72;39.25;101929.63;7255803;19;152722;-57
2023/03/28 04:41:04;;;;;;;;;;;;;;;19.73;39.59;101927.69;7251919;19;153908;-56
2023/03/28 04:43:31;;;;;;;;;;;;;;;19.74;39.20;101926.56;7255597;19;153109;-56
2023/03/28 04:45:57;;;;;;;;;;;;;;;19.71;39.33;101927.13;7249837;19;156259;-56
2023/03/28 04:48:25;;;;;;;;;;;;;;;19.70;39.57;101928.25;7256200;19;153501;-56
2023/03/28 04:50:53;;;;;;;;;;;;;;;19.65;39.67;101928.22;7252441;19;153478;-56
2023/03/28 04:53:20;;;;;;;;;;;;;;;19.65;39.81;101937.50;7254551;19;154063;-56
2023/03/28 04:55:50;;;;;;;;;;;;;;;19.66;39.86;101925.16;7249457;19;152933;-56
2023/03/28 04:58:18;;;;;;;;;;;;;;;19.71;39.45;101925.19;7263317;19;152846;-56
2023/03/28 05:00:45;;;;;;;;;;;;;;;19.75;39.47;101917.03;7248586;19;153787;-56
2023/03/28 05:03:13;;;;;;;;;;;;;;;19.79;39.91;101909.75;7255973;19;152261;-56
2023/03/28 05:05:50;;;;;;;;;;;;;;;19.83;40.26;101913.66;7250538;19;153619;-56
2023/03/28 05:08:18;;;;;;;;;;;;;;;19.89;40.14;101912.56;7254514;19;154131;-56
2023/03/28 05:10:45;;;;;;;;;;;;;;;19.92;40.36;101921.25;7250055;19;152165;-56
2023/03/28 05:13:12;;;;;;;;;;;;;;;19.95;40.35;101909.44;7251306;19;152813;-56
2023/03/28 05:15:41;;;;;;;;;;;;;;;19.99;40.41;101907.75;7251632;19;153888;-56
2023/03/28 05:18:17;;;;;;;;;;;;;;;20.03;40.57;101912.84;7262918;19;153296;-56
2023/03/28 05:20:44;;;;;;;;;;;;;;;20.05;40.92;101908.59;7253435;19;153615;-56
2023/03/28 05:23:11;;;;;;;;;;;;;;;20.10;40.75;101911.41;7256320;19;153557;-56
2023/03/28 05:25:45;;;;;;;;;;;;;;;20.15;41.46;101914.22;7252222;19;152548;-56
2023/03/28 05:28:12;;;;;;;;;;;;;;;20.21;41.36;101909.44;7252132;19;154596;-56
2023/03/28 05:30:39;;;;;;;;;;;;;;;20.26;41.21;101907.44;7251893;19;152276;-56
2023/03/28 05:33:06;;;;;;;;;;;;;;;20.33;40.95;101915.63;7251081;19;152596;-56
2023/03/28 05:35:33;;;;;;;;;;;;;;;20.38;40.68;101905.22;7251180;19;153326;-56
2023/03/28 05:38:01;;;;;;;;;;;;;;;20.44;40.73;101914.50;7253748;19;153861;-56
2023/03/28 05:40:28;;;;;;;;;;;;;;;20.49;40.55;101900.41;7266839;19;153941;-56
2023/03/28 05:42:55;;;;;;;;;;;;;;;20.54;40.53;101903.22;7258789;19;152388;-56
2023/03/28 05:45:22;;;;;;;;;;;;;;;20.60;40.72;101901.22;7259601;19;154058;-56
2023/03/28 05:47:49;;;;;;;;;;;;;;;20.65;40.73;101907.69;7258994;19;152864;-56
2023/03/28 05:50:16;;;;;;;;;;;;;;;20.70;40.87;101901.22;7262956;19;154132;-55
2023/03/28 05:52:43;;;;;;;;;;;;;;;20.74;40.84;101896.69;7260012;19;152950;-55
2023/03/28 05:55:09;;;;;;;;;;;;;;;20.77;40.64;101882.91;7258042;19;153816;-55
2023/03/28 05:57:36;;;;;;;;;;;;;;;20.83;40.51;101890.19;7267204;19;151882;-55
2023/03/28 06:00:13;;;;;;;;;;;;;;;20.85;40.55;101889.88;7265634;19;153319;-56
2023/03/28 06:02:41;;;;;;;;;;;;;;;20.88;40.17;101888.50;7269442;19;154351;-55
2023/03/28 06:05:10;;;;;;;;;;;;;;;20.92;40.38;101886.78;7258512;19;152970;-55
2023/03/28 06:07:38;;;;;;;;;;;;;;;20.95;40.28;101884.22;7261190;19;154657;-56
2023/03/28 06:10:09;;;;;;;;;;;;;;;20.98;40.14;101877.22;7259268;19;151980;-55
2023/03/28 06:12:36;;;;;;;;;;;;;;;21.00;40.26;101883.38;7262958;19;153782;-55
2023/03/28 06:15:03;;;;;;;;;;;;;;;21.03;40.04;101874.38;7254698;19;153986;-55
2023/03/28 06:17:30;;;;;;;;;;;;;;;21.05;40.29;101872.94;7258159;19;152003;-56
2023/03/28 06:19:57;;;;;;;;;;;;;;;21.08;40.40;101871.50;7258814;19;153054;-56
2023/03/28 06:22:24;;;;;;;;;;;;;;;21.10;40.29;101869.25;7257208;19;153010;-56
2023/03/28 06:24:51;;;;;;;;;;;;;;;21.12;39.86;101872.63;7266401;19;153044;-56
2023/03/28 06:27:17;;;;;;;;;;;;;;;21.15;40.18;101867.31;7260027;19;154790;-56
2023/03/28 06:29:44;;;;;;;;;;;;;;;21.16;40.18;101854.94;7259729;19;153440;-56
2023/03/28 06:32:11;;;;;;;;;;;;;;;20.97;39.36;101861.47;7258040;19;153967;-56
2023/03/28 06:34:38;;;;;;;;;;;;;;;20.84;37.25;101852.56;7253635;19;153493;-56
2023/03/28 06:37:05;;;;;;;;;;;;;;;20.95;37.67;101853.31;7255668;19;152828;-56
2023/03/28 06:39:32;;;;;;;;;;;;;;;21.00;38.06;101844.88;7261603;19;154005;-57
2023/03/28 06:42:01;;;;;;;;;;;;;;;21.05;37.91;101846.81;7255815;19;153442;-56
2023/03/28 06:44:29;;;;;;;;;;;;;;;21.09;38.03;101853.53;7257785;19;154266;-57
2023/03/28 06:46:55;;;;;;;;;;;;;;;21.10;37.55;101847.63;7260273;19;152704;-56
2023/03/28 06:49:22;;;;;;;;;;;;;;;21.14;37.76;101839.47;7258454;19;154202;-57
2023/03/28 06:51:49;;;;;;;;;;;;;;;21.16;37.58;101854.94;7260360;19;153470;-57
2023/03/28 06:54:16;;;;;;;;;;;;;;;21.19;37.57;101842.25;7256454;19;152633;-57
2023/03/28 06:56:42;;;;;;;;;;;;;;;21.21;37.56;101840.00;7253729;19;152915;-56
2023/03/28 06:59:09;;;;;;;;;;;;;;;21.23;37.75;101841.38;7257032;19;155183;-57
2023/03/28 07:01:36;;;;;;;;;;;;;;;21.28;37.73;101841.34;7252407;19;154094;-56
2023/03/28 07:04:03;;;;;;;;;;;;;;;21.31;37.74;101839.91;7257265;19;153293;-57
2023/03/28 07:06:30;;;;;;;;;;;;;;;21.33;37.97;101837.66;7255536;19;153689;-57
2023/03/28 07:08:57;;;;;;;;;;;;;;;21.35;37.85;101828.97;7266104;19;153838;-57
2023/03/28 07:11:24;;;;;;;;;;;;;;;21.40;37.51;101832.53;7257826;19;153402;-57
2023/03/28 07:13:51;;;;;;;;;;;;;;;21.41;37.59;101824.94;7257649;19;154213;-57
2023/03/28 07:16:18;;;;;;;;;;;;;;;21.43;37.37;101817.91;7254096;19;153463;-57
2023/03/28 07:18:45;;;;;;;;;;;;;;;21.47;37.38;101815.34;7257516;19;153865;-56
2023/03/28 07:21:16;;;;;;;;;;;;;;;21.50;37.54;101824.03;7251034;19;153408;-57
2023/03/28 07:23:43;;;;;;;;;;;;;;;21.52;37.62;101816.16;7256523;19;153217;-57
2023/03/28 07:26:11;;;;;;;;;;;;;;;21.55;37.32;101817.53;7254345;19;153536;-56
2023/03/28 07:28:38;;;;;;;;;;;;;;;21.58;37.56;101816.94;7260465;19;154217;-56
2023/03/28 07:31:04;;;;;;;;;;;;;;;21.62;37.80;101813.22;7252361;19;153638;-56
2023/03/28 07:33:32;;;;;;;;;;;;;;;21.67;37.46;101817.97;7251641;19;156090;-57
2023/03/28 07:36:07;;;;;;;;;;;;;;;21.69;37.73;101816.56;7259570;19;152637;-56
2023/03/28 07:38:34;;;;;;;;;;;;;;;21.72;37.56;101823.56;7258209;19;154442;-54
2023/03/28 07:41:01;;;;;;;;;;;;;;;21.75;37.92;101822.97;7258241;19;155443;-55
2023/03/28 07:43:27;;;;;;;;;;;;;;;21.79;37.60;101818.44;7264379;19;153743;-56
2023/03/28 07:46:01;;;;;;;;;;;;;;;21.80;37.61;101822.09;7256679;19;153311;-56
2023/03/28 07:48:29;;;;;;;;;;;;;;;21.82;37.53;101806.59;7256637;19;156492;-56
2023/03/28 07:50:56;;;;;;;;;;;;;;;21.82;37.44;101817.00;7260141;19;154312;-56
2023/03/28 07:53:23;;;;;;;;;;;;;;;21.82;37.23;101798.16;7255142;19;153459;-56
2023/03/28 07:55:52;;;;;;;;;;;;;;;21.84;37.54;101798.69;7244168;19;154354;-57
2023/03/28 07:58:22;;;;;;;;;;;;;;;21.84;37.60;101800.69;7255514;19;154866;-57
2023/03/28 08:00:49;;;;;;;;;;;;;;;21.85;37.46;101808.00;7253181;19;152939;-57
2023/03/28 08:03:17;;;;;;;;;;;;;;;21.85;37.23;101810.81;7254203;19;153499;-57
2023/03/28 08:05:51;;;;;;;;;;;;;;;21.84;37.43;101797.88;7256097;19;153011;-56
2023/03/28 08:08:19;;;;;;;;;;;;;;;21.82;37.45;101786.06;7256941;19;153135;-57
2023/03/28 08:10:49;;;;;;;;;;;;;;;21.85;37.43;101791.91;7245529;19;153303;-56
2023/03/28 08:13:19;;;;;;;;;;;;;;;21.82;37.02;101794.50;7261551;19;155071;-56
2023/03/28 08:15:49;;;;;;;;;;;;;;;21.80;37.14;101796.78;7251101;19;153464;-56
2023/03/28 08:18:21;;;;;;;;;;;;;;;21.80;37.24;101793.97;7255030;19;153517;-56
2023/03/28 08:20:47;;;;;;;;;;;;;;;21.80;37.26;101796.78;7251782;19;153957;-56
2023/03/28 08:23:15;;;;;;;;;;;;;;;21.79;37.41;101798.75;7259211;19;152740;-56
2023/03/28 08:25:41;;;;;;;;;;;;;;;21.78;37.45;101793.41;7253545;19;156011;-56
2023/03/28 08:28:11;;;;;;;;;;;;;;;21.76;36.94;101799.31;7249381;19;156110;-56
2023/03/28 08:30:37;;;;;;;;;;;;;;;21.71;37.25;101786.16;7251254;19;154278;-57
2023/03/28 08:33:04;;;;;;;;;;;;;;;21.71;37.57;101794.59;7254598;19;153963;-56
2023/03/28 08:35:31;;;;;;;;;;;;;;;21.71;37.55;101788.16;7262557;19;153779;-56
2023/03/28 08:37:58;;;;;;;;;;;;;;;21.69;37.22;101781.97;7256190;19;153890;-56
2023/03/28 08:40:27;;;;;;;;;;;;;;;21.67;37.51;101765.38;7254093;19;155069;-56
2023/03/28 08:42:57;;;;;;;;;;;;;;;21.65;37.46;101776.09;7253815;19;153074;-58
2023/03/28 08:45:24;;;;;;;;;;;;;;;21.65;37.26;101770.47;7253204;19;154190;-56
2023/03/28 08:48:13;;;;;;;;;;;;;;;21.62;37.82;101768.22;7250097;19;153483;-56
2023/03/28 08:50:42;;;;;;;;;;;;;;;21.60;37.58;101761.25;7253013;19;151967;-56
2023/03/28 08:53:29;;;;;;;;;;;;;;;21.56;37.70;101761.00;7252751;19;154694;-57
2023/03/28 08:55:56;;;;;;;;;;;;;;;21.56;37.54;101752.56;7251588;19;155211;-56
2023/03/28 08:58:25;;;;;;;;;;;;;;;21.52;37.76;101759.91;7259921;19;157352;-56
2023/03/28 09:00:52;;;;;;;;;;;;;;;21.53;37.76;101761.56;7253339;19;153469;-56
2023/03/28 09:03:21;;;;;;;;;;;;;;;21.47;37.94;101757.16;7253893;19;153229;-56
2023/03/28 09:05:51;;;;;;;;;;;;;;;21.47;37.64;101754.34;7254814;19;153724;-56
2023/03/28 09:08:31;;;;;;;;;;;;;;;21.44;38.10;101759.72;7255071;19;154007;-56
2023/03/28 09:11:03;;;;;;;;;;;;;;;21.43;37.97;101760.84;7255476;19;152787;-56
2023/03/28 09:13:30;;;;;;;;;;;;;;;21.39;37.94;101760.59;7255180;19;154959;-56
2023/03/28 09:16:05;;;;;;;;;;;;;;;21.37;37.90;101754.41;7258906;19;153482;-56
2023/03/28 09:18:32;;;;;;;;;;;;;;;21.33;38.00;101755.31;7261819;19;154427;-56
2023/03/28 09:21:02;;;;;;;;;;;;;;;21.33;37.79;101744.91;7266145;19;153582;-56
2023/03/28 09:23:47;;;;;;;;;;;;;;;21.29;37.79;101744.66;7262314;19;153643;-57
2023/03/28 09:26:19;;;;;;;;;;;;;;;21.25;38.02;101751.16;7259601;19;153693;-56
2023/03/28 09:28:45;;;;;;;;;;;;;;;21.20;37.95;101751.19;7258728;19;154842;-56
2023/03/28 09:31:14;;;;;;;;;;;;;;;21.18;38.39;101742.22;7258504;19;153390;-56
2023/03/28 09:33:44;;;;;;;;;;;;;;;21.11;38.41;101745.34;7259456;19;153607;-56
2023/03/28 09:36:12;;;;;;;;;;;;;;;21.13;38.04;101757.16;7256541;19;154334;-56
2023/03/28 09:38:44;;;;;;;;;;;;;;;21.08;38.19;101743.09;7261135;19;153083;-56
2023/03/28 09:41:37;;;;;;;;;;;;;;;21.09;38.09;101744.78;7266296;19;153367;-56
2023/03/28 09:44:05;;;;;;;;;;;;;;;21.02;38.29;101746.25;7257537;19;153038;-56
2023/03/28 09:46:35;;;;;;;;;;;;;;;20.99;38.19;101741.19;7254660;19;153863;-56
2023/03/28 09:49:03;;;;;;;;;;;;;;;20.92;38.61;101747.16;7259846;19;154009;-56
2023/03/28 09:51:30;;;;;;;;;;;;;;;20.91;38.56;101744.63;7254925;19;152607;-56
2023/03/28 09:53:57;;;;;;;;;;;;;;;20.89;38.51;101747.75;7262393;19;152986;-56
2023/03/28 09:56:26;;;;;;;;;;;;;;;20.84;38.33;101740.19;7256545;19;154460;-56
2023/03/28 09:58:57;;;;;;;;;;;;;;;20.85;38.48;101749.44;7256341;19;154043;-56
2023/03/28 10:01:24;;;;;;;;;;;;;;;20.78;38.57;101752.59;7255475;19;153092;-56
2023/03/28 10:03:53;;;;;;;;;;;;;;;20.79;38.58;101734.63;7263053;19;153125;-56
2023/03/28 10:06:24;;;;;;;;;;;;;;;20.74;38.63;101750.66;7257882;19;155202;-56
2023/03/28 10:08:51;;;;;;;;;;;;;;;20.70;38.47;101747.59;7256425;19;154959;-56
2023/03/28 10:11:20;;;;;;;;;;;;;;;20.67;38.76;101755.78;7262392;19;153612;-56
2023/03/28 10:13:50;;;;;;;;;;;;;;;20.63;38.67;101755.47;7260432;19;154554;-56
2023/03/28 10:16:35;;;;;;;;;;;;;;;20.60;38.98;101744.84;7255362;19;153279;-56
2023/03/28 10:19:02;;;;;;;;;;;;;;;20.54;38.89;101756.38;7261855;19;152591;-56
2023/03/28 10:21:30;;;;;;;;;;;;;;;20.56;39.13;101771.81;7260051;19;153830;-56
2023/03/28 10:23:57;;;;;;;;;;;;;;;20.51;39.11;101760.59;7257772;19;154210;-56
2023/03/28 10:26:25;;;;;;;;;;;;;;;20.52;38.76;101750.22;7265581;19;154381;-56
2023/03/28 10:28:53;;;;;;;;;;;;;;;20.49;38.84;101756.44;7257521;19;154209;-56
2023/03/28 10:31:27;;;;;;;;;;;;;;;20.51;39.33;101751.34;7247722;19;154256;-56
2023/03/28 10:33:56;;;;;;;;;;;;;;;20.56;38.82;101759.75;7260456;19;152763;-56
2023/03/28 10:36:30;;;;;;;;;;;;;;;20.62;39.09;101752.97;7256278;19;154328;-56
2023/03/28 10:38:57;;;;;;;;;;;;;;;20.64;38.82;101751.56;7256676;19;154357;-56
2023/03/28 10:41:25;;;;;;;;;;;;;;;20.69;38.66;101756.28;7256178;19;152943;-56
2023/03/28 10:43:53;;;;;;;;;;;;;;;20.70;38.65;101749.56;7254072;19;154053;-56
2023/03/28 10:46:46;;;;;;;;;;;;;;;20.72;38.94;101748.13;7253011;19;153942;-56
2023/03/28 10:49:14;;;;;;;;;;;;;;;20.76;38.79;101756.81;7261568;19;152873;-56
2023/03/28 10:51:41;;;;;;;;;;;;;;;20.78;38.68;101749.78;7256040;19;153156;-56
2023/03/28 10:54:15;;;;;;;;;;;;;;;20.83;39.06;101737.69;7258584;19;153191;-56
2023/03/28 10:56:51;;;;;;;;;;;;;;;20.88;38.82;101739.59;7253353;19;154429;-56
2023/03/28 10:59:54;;;;;;;;;;;;;;;20.92;38.83;101732.28;7256744;19;153773;-56
2023/03/28 11:02:35;;;;;;;;;;;;;;;20.96;38.50;101725.78;7249119;19;153064;-56
2023/03/28 11:05:10;;;;;;;;;;;;;;;21.00;38.53;101737.25;7255517;19;156146;-56
2023/03/28 11:07:55;;;;;;;;;;;;;;;21.04;38.85;101733.56;7255126;19;154310;-56
2023/03/28 11:10:32;;;;;;;;;;;;;;;21.08;38.72;101717.81;7255909;19;151951;-56
2023/03/28 11:13:18;;;;;;;;;;;;;;;21.11;38.63;101705.16;7263489;19;153280;-56
2023/03/28 11:15:57;;;;;;;;;;;;;;;21.15;38.37;101695.03;7249031;19;153417;-56
2023/03/28 11:18:31;;;;;;;;;;;;;;;21.17;38.25;101682.34;7255708;19;153970;-56
2023/03/28 11:21:14;;;;;;;;;;;;;;;21.22;38.15;101668.25;7255051;19;152453;-56
2023/03/28 11:23:45;;;;;;;;;;;;;;;21.25;38.34;101672.47;7255611;19;152348;-56
2023/03/28 11:26:15;;;;;;;;;;;;;;;21.30;38.50;101672.41;7252852;19;154646;-56
2023/03/28 11:28:51;;;;;;;;;;;;;;;21.32;38.23;101672.94;7255505;19;154642;-56
2023/03/28 11:31:38;;;;;;;;;;;;;;;21.35;38.20;101686.41;7254118;19;152839;-56
2023/03/28 11:34:12;;;;;;;;;;;;;;;21.37;37.91;101689.75;7249145;19;154353;-56
2023/03/28 11:36:41;;;;;;;;;;;;;;;21.39;38.04;101679.06;7261604;19;152036;-56
2023/03/28 11:39:16;;;;;;;;;;;;;;;21.41;37.89;101670.31;7254765;19;154330;-56
2023/03/28 11:41:44;;;;;;;;;;;;;;;21.42;38.10;101672.00;7256923;19;153359;-56
2023/03/28 11:44:34;;;;;;;;;;;;;;;21.44;38.11;101678.19;7255908;19;152962;-56
2023/03/28 11:47:19;;;;;;;;;;;;;;;21.45;38.09;101675.06;7254138;19;154389;-56
2023/03/28 11:49:57;;;;;;;;;;;;;;;21.46;38.10;101685.16;7256539;19;153339;-56
2023/03/28 11:52:29;;;;;;;;;;;;;;;21.46;37.75;101687.16;7256532;19;153411;-56
2023/03/28 11:55:14;;;;;;;;;;;;;;;21.46;37.96;101692.75;7254820;19;154024;-56
2023/03/28 11:57:41;;;;;;;;;;;;;;;21.46;38.14;101684.34;7262555;19;153492;-56
2023/03/28 12:00:17;;;;;;;;;;;;;;;21.46;38.00;101676.75;7254493;19;153462;-56
2023/03/28 12:03:20;;;;;;;;;;;;;;;21.44;38.22;101673.38;7251457;19;155524;-56
2023/03/28 12:05:50;;;;;;;;;;;;;;;21.46;38.06;101659.88;7252786;19;153324;-57
2023/03/28 12:08:46;;;;;;;;;;;;;;;21.44;38.14;101627.56;7252553;19;154211;-56
2023/03/28 12:11:36;;;;;;;;;;;;;;;21.47;38.25;101635.41;7256255;19;152792;-56
2023/03/28 12:14:41;;;;;;;;;;;;;;;21.47;37.91;101621.34;7255511;19;153470;-56
2023/03/28 12:17:14;;;;;;;;;;;;;;;21.46;38.25;101614.03;7243306;19;153759;-56
2023/03/28 12:19:41;;;;;;;;;;;;;;;21.47;38.17;101607.28;7250094;19;152541;-56
2023/03/28 12:22:14;;;;;;;;;;;;;;;21.45;38.03;101599.16;7260293;19;153449;-56
2023/03/28 12:24:45;;;;;;;;;;;;;;;21.46;38.07;101589.56;7255051;19;152285;-56
2023/03/28 12:27:37;;;;;;;;;;;;;;;21.45;38.01;101575.81;7253261;19;153521;-56
2023/03/28 12:30:15;;;;;;;;;;;;;;;21.45;38.23;101575.81;7255166;19;155293;-56
2023/03/28 12:33:11;;;;;;;;;;;;;;;21.43;38.21;101575.28;7249665;19;153639;-56
2023/03/28 12:35:54;;;;;;;;;;;;;;;21.41;38.57;101585.97;7252306;19;153696;-56
2023/03/28 12:38:21;;;;;;;;;;;;;;;21.39;38.27;101577.88;7255171;19;154064;-56
2023/03/28 12:40:57;;;;;;;;;;;;;;;21.38;38.31;101556.50;7253394;19;153464;-56
2023/03/28 12:43:32;;;;;;;;;;;;;;;21.37;38.17;101565.22;7254122;19;153660;-56
2023/03/28 12:46:01;;;;;;;;;;;;;;;21.34;38.43;101560.22;7254841;19;153991;-56
2023/03/28 12:48:30;;;;;;;;;;;;;;;21.34;38.64;101558.25;7253216;19;153137;-56